createdAt,value
2022-08-28T00:00:48.858Z,100463.95
2022-08-28T00:01:53.230Z,100463.95
2022-08-28T00:02:57.799Z,100471.53
2022-08-28T00:04:02.655Z,100464.58
2022-08-28T00:05:08.061Z,100474.86
2022-08-28T00:06:12.600Z,100470.39
2022-08-28T00:07:16.975Z,100468.19
2022-08-28T00:08:21.348Z,100467.28
2022-08-28T00:09:25.695Z,100468.83
2022-08-28T00:10:30.056Z,100468.51
2022-08-28T00:11:34.527Z,100460.09
2022-08-28T00:12:38.864Z,100466.44
2022-08-28T00:13:43.253Z,100467.28
2022-08-28T00:14:47.576Z,100462.47
2022-08-28T00:15:52.034Z,100470.17
2022-08-28T00:16:56.509Z,100469.98
2022-08-28T00:18:00.956Z,100468.63
2022-08-28T00:19:09.501Z,100467.37
2022-08-28T00:20:13.866Z,100468.31
2022-08-28T00:21:18.206Z,100461.97
2022-08-28T00:22:22.571Z,100461.25
2022-08-28T00:23:43.418Z,100467.06
2022-08-28T00:24:47.837Z,100466.65
2022-08-28T00:25:52.178Z,100461.34
2022-08-28T00:26:56.555Z,100469.85
2022-08-28T00:28:00.886Z,100464.98
2022-08-28T00:29:12.441Z,100466.2
2022-08-28T00:30:16.843Z,100464.98
2022-08-28T00:31:21.361Z,100464.86
2022-08-28T00:32:25.848Z,100464.04
2022-08-28T00:33:30.223Z,100462.16
2022-08-28T00:34:34.892Z,100462.16
2022-08-28T00:35:39.222Z,100465.48
2022-08-28T00:36:44.449Z,100464.04
2022-08-28T00:37:49.286Z,100460.93
2022-08-28T00:38:55.182Z,100460.48
2022-08-28T00:40:00.517Z,100463.31
2022-08-28T00:41:07.061Z,100462.78
2022-08-28T00:42:11.413Z,100467.37
2022-08-28T00:43:15.747Z,100460.08
2022-08-28T00:44:20.155Z,100469.12
2022-08-28T00:45:24.508Z,100464.13
2022-08-28T00:46:28.982Z,100461.02
2022-08-28T00:47:33.512Z,100456.66
2022-08-28T00:48:38.193Z,100468.72
2022-08-28T00:49:42.573Z,100464.66
2022-08-28T00:50:49.182Z,100458.41
2022-08-28T00:51:53.519Z,100464.66
2022-08-28T00:52:57.860Z,100461.02
2022-08-28T00:54:07.810Z,100458.32
2022-08-28T00:55:12.307Z,100460.61
2022-08-28T00:56:16.664Z,100455.62
2022-08-28T00:57:21.850Z,100461.43
2022-08-28T00:58:31.506Z,100455.7
2022-08-28T00:59:35.824Z,100455.21
2022-08-28T01:00:40.164Z,100454.89
2022-08-28T01:01:44.667Z,100456.56
2022-08-28T01:02:49.297Z,100458.41
2022-08-28T01:03:53.837Z,100455.7
2022-08-28T01:04:58.203Z,100449.48
2022-08-28T01:06:02.534Z,100448.95
2022-08-28T01:07:06.885Z,100455.8
2022-08-28T01:08:12.969Z,100452.69
2022-08-28T01:09:22.097Z,100446.16
2022-08-28T01:10:26.464Z,100444.49
2022-08-28T01:11:30.860Z,100444.49
2022-08-28T01:12:35.217Z,100445.31
2022-08-28T01:13:39.596Z,100444.91
2022-08-28T01:14:43.961Z,100445.75
2022-08-28T01:15:48.481Z,100447.2
2022-08-28T01:16:52.981Z,100457.47
2022-08-28T01:17:57.334Z,100456.88
2022-08-28T01:19:01.730Z,100454.27
2022-08-28T01:20:06.105Z,100445.31
2022-08-28T01:21:10.481Z,100446.66
2022-08-28T01:22:23.568Z,100443.96
2022-08-28T01:23:27.929Z,100441.89
2022-08-28T01:24:32.314Z,100435.23
2022-08-28T01:25:36.746Z,100440.63
2022-08-28T01:26:41.085Z,100446.97
2022-08-28T01:27:45.498Z,100440.63
2022-08-28T01:28:49.828Z,100441.57
2022-08-28T01:29:54.175Z,100441.98
2022-08-28T01:30:58.593Z,100441.98
2022-08-28T01:32:03.078Z,100437.02
2022-08-28T01:33:07.670Z,100442.83
2022-08-28T01:34:15.375Z,100437.92
2022-08-28T01:35:20.749Z,100438.45
2022-08-28T01:36:25.081Z,100435.44
2022-08-28T01:37:29.439Z,100435.44
2022-08-28T01:38:33.799Z,100435.34
2022-08-28T01:39:38.187Z,100439.59
2022-08-28T01:40:42.630Z,100441.89
2022-08-28T01:41:46.959Z,100441.06
2022-08-28T01:42:51.293Z,100445.62
2022-08-28T01:43:55.622Z,100450.2
2022-08-28T01:45:00.069Z,100454.67
2022-08-28T01:46:04.590Z,100453.5
2022-08-28T01:47:08.990Z,100450.2
2022-08-28T01:48:13.726Z,100449.77
2022-08-28T01:49:18.284Z,100451.02
2022-08-28T01:50:22.763Z,100457.78
2022-08-28T01:51:27.146Z,100455.61
2022-08-28T01:52:39.264Z,100451.65
2022-08-28T01:53:47.555Z,100456.52
2022-08-28T01:54:53.803Z,100453.94
2022-08-28T01:55:59.196Z,100453.81
2022-08-28T01:57:03.678Z,100461.42
2022-08-28T01:58:08.049Z,100458.19
2022-08-28T01:59:12.550Z,100456.84
2022-08-28T02:00:16.897Z,100461.42
2022-08-28T02:01:21.449Z,100468.68
2022-08-28T02:02:25.851Z,100459.34
2022-08-28T02:03:30.203Z,100458.09
2022-08-28T02:04:34.735Z,100463.4
2022-08-28T02:05:39.283Z,100457.68
2022-08-28T02:06:43.657Z,100455.39
2022-08-28T02:07:47.977Z,100460.47
2022-08-28T02:08:52.347Z,100459.66
2022-08-28T02:09:56.713Z,100464.2
2022-08-28T02:11:01.069Z,100463.27
2022-08-28T02:12:05.430Z,100468.26
2022-08-28T02:13:09.783Z,100461.72
2022-08-28T02:14:14.142Z,100461.09
2022-08-28T02:15:19.806Z,100459.66
2022-08-28T02:16:28.013Z,100463.17
2022-08-28T02:17:32.365Z,100460.47
2022-08-28T02:18:36.714Z,100459.21
2022-08-28T02:19:41.074Z,100455.06
2022-08-28T02:20:45.424Z,100459.34
2022-08-28T02:21:49.781Z,100455.48
2022-08-28T02:22:54.171Z,100457.36
2022-08-28T02:23:58.528Z,100456.42
2022-08-28T02:25:02.865Z,100455.92
2022-08-28T02:26:07.203Z,100457.68
2022-08-28T02:27:11.559Z,100452.46
2022-08-28T02:28:15.931Z,100456.73
2022-08-28T02:29:20.288Z,100458.17
2022-08-28T02:30:24.684Z,100459.62
2022-08-28T02:31:29.189Z,100462.22
2022-08-28T02:32:33.562Z,100453.17
2022-08-28T02:33:37.945Z,100458.48
2022-08-28T02:34:42.347Z,100456
2022-08-28T02:35:46.687Z,100457.77
2022-08-28T02:36:51.011Z,100463.16
2022-08-28T02:37:56.471Z,100461.5
2022-08-28T02:39:03.751Z,100465.45
2022-08-28T02:40:08.201Z,100468.88
2022-08-28T02:41:12.636Z,100466.19
2022-08-28T02:42:18.176Z,100465.78
2022-08-28T02:43:23.801Z,100469.39
2022-08-28T02:44:28.200Z,100463.98
2022-08-28T02:45:32.551Z,100469.39
2022-08-28T02:46:37.101Z,100469.61
2022-08-28T02:47:41.654Z,100467.95
2022-08-28T02:48:46.004Z,100470.23
2022-08-28T02:49:50.373Z,100468.48
2022-08-28T02:50:54.705Z,100470.64
2022-08-28T02:51:59.071Z,100462.22
2022-08-28T02:53:03.469Z,100464.83
2022-08-28T02:54:07.844Z,100464.92
2022-08-28T02:55:12.382Z,100460.37
2022-08-28T02:56:16.726Z,100461.28
2022-08-28T02:57:21.090Z,100459.02
2022-08-28T02:58:25.445Z,100463.48
2022-08-28T02:59:29.791Z,100463.89
2022-08-28T03:00:34.170Z,100469.3
2022-08-28T03:01:38.641Z,100466.59
2022-08-28T03:02:43.331Z,100462.54
2022-08-28T03:03:47.813Z,100470.73
2022-08-28T03:04:52.356Z,100467.85
2022-08-28T03:05:56.718Z,100469.83
2022-08-28T03:07:01.099Z,100469.39
2022-08-28T03:08:05.499Z,100468.35
2022-08-28T03:09:09.979Z,100472.21
2022-08-28T03:10:14.329Z,100477.17
2022-08-28T03:11:18.679Z,100479.38
2022-08-28T03:12:23.024Z,100484.45
2022-08-28T03:13:28.348Z,100476.86
2022-08-28T03:14:32.692Z,100484.77
2022-08-28T03:15:37.044Z,100477.48
2022-08-28T03:16:41.551Z,100480.59
2022-08-28T03:17:48.845Z,100483.73
2022-08-28T03:18:54.687Z,100475.72
2022-08-28T03:19:59.079Z,100469.47
2022-08-28T03:21:03.413Z,100476.22
2022-08-28T03:22:07.801Z,100467.62
2022-08-28T03:23:12.148Z,100473.52
2022-08-28T03:24:16.779Z,100467.2
2022-08-28T03:25:21.159Z,100471.35
2022-08-28T03:26:25.502Z,100472.3
2022-08-28T03:27:29.868Z,100470.72
2022-08-28T03:28:34.246Z,100471.53
2022-08-28T03:29:38.574Z,100471.03
2022-08-28T03:30:43.097Z,100476.44
2022-08-28T03:31:47.589Z,100474.86
2022-08-28T03:32:51.971Z,100475.8
2022-08-28T03:33:56.328Z,100471.44
2022-08-28T03:35:00.677Z,100465.62
2022-08-28T03:36:05.821Z,100467.37
2022-08-28T03:37:10.883Z,100470.31
2022-08-28T03:38:15.479Z,100467.48
2022-08-28T03:39:19.846Z,100465.72
2022-08-28T03:40:24.337Z,100465.22
2022-08-28T03:41:29.006Z,100461.36
2022-08-28T03:42:33.508Z,100461.57
2022-08-28T03:43:38.068Z,100460.09
2022-08-28T03:44:42.458Z,100464.59
2022-08-28T03:45:46.863Z,100454.28
2022-08-28T03:46:52.005Z,100461.98
2022-08-28T03:47:57.143Z,100464.06
2022-08-28T03:49:02.783Z,100460.09
2022-08-28T03:50:09.962Z,100464.68
2022-08-28T03:51:16.264Z,100466.34
2022-08-28T03:52:21.871Z,100460.95
2022-08-28T03:53:26.217Z,100471.22
2022-08-28T03:54:30.580Z,100465.81
2022-08-28T03:55:34.951Z,100468.95
2022-08-28T03:56:39.307Z,100466.12
2022-08-28T03:57:43.681Z,100472.38
2022-08-28T03:58:50.256Z,100470.27
2022-08-28T03:59:54.595Z,100469.36
2022-08-28T04:00:58.973Z,100468.83
2022-08-28T04:02:03.437Z,100470.17
2022-08-28T04:03:07.943Z,100469.67
2022-08-28T04:04:12.420Z,100470.7
2022-08-28T04:05:16.765Z,100476.2
2022-08-28T04:06:21.131Z,100476.11
2022-08-28T04:07:25.497Z,100481.39
2022-08-28T04:08:30.067Z,100477.66
2022-08-28T04:09:34.444Z,100478.91
2022-08-28T04:10:38.809Z,100478.91
2022-08-28T04:11:43.167Z,100486.2
2022-08-28T04:12:47.489Z,100478.59
2022-08-28T04:13:51.873Z,100484.31
2022-08-28T04:14:56.237Z,100484.22
2022-08-28T04:16:00.604Z,100484.13
2022-08-28T04:17:11.090Z,100486.39
2022-08-28T04:18:15.823Z,100488.78
2022-08-28T04:19:20.176Z,100490.12
2022-08-28T04:20:24.507Z,100489.72
2022-08-28T04:21:28.846Z,100487.55
2022-08-28T04:22:33.481Z,100492.95
2022-08-28T04:23:37.992Z,100490.84
2022-08-28T04:24:42.346Z,100485.56
2022-08-28T04:25:46.715Z,100488.14
2022-08-28T04:26:51.082Z,100493.66
2022-08-28T04:27:55.472Z,100492.81
2022-08-28T04:28:59.824Z,100493.23
2022-08-28T04:30:04.193Z,100489.8
2022-08-28T04:31:13.223Z,100493.94
2022-08-28T04:32:17.786Z,100492.5
2022-08-28T04:33:22.281Z,100487
2022-08-28T04:34:26.638Z,100490.64
2022-08-28T04:35:30.989Z,100489.8
2022-08-28T04:36:35.327Z,100487.95
2022-08-28T04:37:39.705Z,100488.77
2022-08-28T04:38:45.238Z,100488.36
2022-08-28T04:39:49.600Z,100489.07
2022-08-28T04:40:53.990Z,100487.81
2022-08-28T04:41:58.397Z,100481.06
2022-08-28T04:43:02.776Z,100487.49
2022-08-28T04:44:07.133Z,100484.8
2022-08-28T04:45:11.530Z,100487.49
2022-08-28T04:46:16.040Z,100485.64
2022-08-28T04:47:20.498Z,100488.75
2022-08-28T04:48:24.945Z,100491.67
2022-08-28T04:49:29.269Z,100483.12
2022-08-28T04:50:33.616Z,100486.86
2022-08-28T04:51:43.072Z,100480.74
2022-08-28T04:52:51.183Z,100489.16
2022-08-28T04:53:55.543Z,100483.35
2022-08-28T04:55:00.012Z,100490.73
2022-08-28T04:56:04.362Z,100486.14
2022-08-28T04:57:10.360Z,100489.78
2022-08-28T04:58:14.945Z,100489.16
2022-08-28T04:59:19.282Z,100483.03
2022-08-28T05:00:23.650Z,100483.03
2022-08-28T05:01:28.218Z,100491.67
2022-08-28T05:02:32.832Z,100485.33
2022-08-28T05:03:37.376Z,100485.23
2022-08-28T05:04:41.744Z,100491.98
2022-08-28T05:05:46.101Z,100491.05
2022-08-28T05:06:50.458Z,100488.34
2022-08-28T05:07:54.823Z,100484.16
2022-08-28T05:08:59.195Z,100493.22
2022-08-28T05:10:04.189Z,100490.63
2022-08-28T05:11:08.895Z,100493.34
2022-08-28T05:12:13.233Z,100496.12
2022-08-28T05:13:17.555Z,100496.95
2022-08-28T05:14:21.914Z,100496.95
2022-08-28T05:15:26.302Z,100495
2022-08-28T05:16:30.927Z,100496.14
2022-08-28T05:17:35.466Z,100487.19
2022-08-28T05:18:39.792Z,100493.03
2022-08-28T05:19:44.153Z,100488.13
2022-08-28T05:20:48.491Z,100487.31
2022-08-28T05:21:52.830Z,100490.2
2022-08-28T05:22:57.215Z,100491.56
2022-08-28T05:24:01.560Z,100487.19
2022-08-28T05:25:05.912Z,100491.86
2022-08-28T05:26:10.277Z,100488.13
2022-08-28T05:27:14.635Z,100492.91
2022-08-28T05:28:19.088Z,100491.56
2022-08-28T05:29:26.295Z,100491.88
2022-08-28T05:30:30.765Z,100497.19
2022-08-28T05:31:35.222Z,100494.08
2022-08-28T05:32:39.659Z,100496.25
2022-08-28T05:33:43.979Z,100503.31
2022-08-28T05:34:48.341Z,100497
2022-08-28T05:35:52.668Z,100504.16
2022-08-28T05:36:57.061Z,100500.11
2022-08-28T05:38:01.410Z,100501.46
2022-08-28T05:39:05.795Z,100498.77
2022-08-28T05:40:10.265Z,100506.86
2022-08-28T05:41:14.739Z,100502.81
2022-08-28T05:42:19.101Z,100506.02
2022-08-28T05:43:23.483Z,100503.76
2022-08-28T05:44:27.835Z,100504.98
2022-08-28T05:45:32.346Z,100513.53
2022-08-28T05:46:36.746Z,100511.64
2022-08-28T05:47:41.098Z,100509.35
2022-08-28T05:48:45.461Z,100513.94
2022-08-28T05:49:53.292Z,100509.88
2022-08-28T05:50:57.667Z,100513.41
2022-08-28T05:52:02.145Z,100507.69
2022-08-28T05:53:06.502Z,100510.92
2022-08-28T05:54:10.857Z,100515.37
2022-08-28T05:55:15.239Z,100509.48
2022-08-28T05:56:19.586Z,100511.33
2022-08-28T05:57:23.941Z,100515.7
2022-08-28T05:58:28.317Z,100509.48
2022-08-28T05:59:32.751Z,100514.75
2022-08-28T06:00:37.112Z,100516.86
2022-08-28T06:01:41.661Z,100518
2022-08-28T06:02:46.098Z,100521.43
2022-08-28T06:03:50.578Z,100521.87
2022-08-28T06:04:55.115Z,100518.73
2022-08-28T06:05:59.447Z,100517.2
2022-08-28T06:07:03.839Z,100523.09
2022-08-28T06:08:08.181Z,100519.05
2022-08-28T06:09:12.585Z,100523.62
2022-08-28T06:10:16.950Z,100521.75
2022-08-28T06:11:25.481Z,100525.39
2022-08-28T06:12:34.108Z,100524.45
2022-08-28T06:13:39.820Z,100528.63
2022-08-28T06:14:45.927Z,100529.97
2022-08-28T06:15:50.808Z,100529.03
2022-08-28T06:16:55.180Z,100534.53
2022-08-28T06:17:59.531Z,100529.03
2022-08-28T06:19:03.867Z,100537.55
2022-08-28T06:20:08.226Z,100538.89
2022-08-28T06:21:12.581Z,100533.91
2022-08-28T06:22:16.930Z,100545.15
2022-08-28T06:23:25.150Z,100542.01
2022-08-28T06:24:29.495Z,100534.94
2022-08-28T06:25:34.654Z,100547.41
2022-08-28T06:26:39.070Z,100547
2022-08-28T06:27:43.550Z,100533.91
2022-08-28T06:28:47.914Z,100536.52
2022-08-28T06:29:52.251Z,100541.51
2022-08-28T06:31:25.934Z,100532.99
2022-08-28T06:32:36.619Z,100543.27
2022-08-28T06:33:40.966Z,100540.06
2022-08-28T06:34:45.300Z,100545.47
2022-08-28T06:35:49.647Z,100545.15
2022-08-28T06:36:55.225Z,100537.45
2022-08-28T06:37:59.619Z,100546.5
2022-08-28T06:39:03.975Z,100535.25
2022-08-28T06:40:08.417Z,100542.45
2022-08-28T06:41:12.857Z,100540.56
2022-08-28T06:42:17.231Z,100532.55
2022-08-28T06:43:21.669Z,100533.72
2022-08-28T06:44:26.060Z,100534.12
2022-08-28T06:45:30.537Z,100532.78
2022-08-28T06:46:37.613Z,100534.04
2022-08-28T06:47:42.834Z,100533.42
2022-08-28T06:48:47.332Z,100534.87
2022-08-28T06:49:51.696Z,100536.27
2022-08-28T06:50:56.055Z,100542.39
2022-08-28T06:52:00.407Z,100538.13
2022-08-28T06:53:04.774Z,100547.7
2022-08-28T06:54:09.105Z,100548.72
2022-08-28T06:55:13.496Z,100545.98
2022-08-28T06:56:28.032Z,100545.34
2022-08-28T06:57:32.417Z,100542.69
2022-08-28T06:58:36.747Z,100540.2
2022-08-28T06:59:41.063Z,100540.22
2022-08-28T07:00:45.416Z,100539.88
2022-08-28T07:01:50.111Z,100537.82
2022-08-28T07:02:54.792Z,100536.56
2022-08-28T07:03:59.278Z,100544.98
2022-08-28T07:05:03.672Z,100541.13
2022-08-28T07:06:08.011Z,100544.12
2022-08-28T07:07:18.746Z,100536.33
2022-08-28T07:08:36.924Z,100537.68
2022-08-28T07:09:41.277Z,100540.33
2022-08-28T07:10:45.651Z,100538.22
2022-08-28T07:11:49.994Z,100540.16
2022-08-28T07:12:54.322Z,100533.61
2022-08-28T07:13:58.705Z,100538.56
2022-08-28T07:15:03.032Z,100543.34
2022-08-28T07:16:07.581Z,100544.36
2022-08-28T07:17:12.155Z,100540.03
2022-08-28T07:18:16.497Z,100536.6
2022-08-28T07:19:20.877Z,100551.31
2022-08-28T07:20:25.214Z,100536.71
2022-08-28T07:21:29.600Z,100542.84
2022-08-28T07:22:33.981Z,100535.63
2022-08-28T07:23:38.347Z,100538.56
2022-08-28T07:24:42.701Z,100539.27
2022-08-28T07:25:47.055Z,100543.52
2022-08-28T07:26:51.448Z,100542.67
2022-08-28T07:27:55.813Z,100535.56
2022-08-28T07:29:11.890Z,100539.22
2022-08-28T07:30:16.283Z,100537.59
2022-08-28T07:31:20.844Z,100529.92
2022-08-28T07:32:25.329Z,100535.64
2022-08-28T07:33:29.682Z,100533.22
2022-08-28T07:34:34.446Z,100533.89
2022-08-28T07:35:39.058Z,100535.09
2022-08-28T07:36:43.459Z,100535.17
2022-08-28T07:37:47.817Z,100536.14
2022-08-28T07:38:54.784Z,100540.72
2022-08-28T07:39:59.290Z,100544.26
2022-08-28T07:41:03.729Z,100540.08
2022-08-28T07:42:08.078Z,100540.05
2022-08-28T07:43:13.432Z,100540
2022-08-28T07:44:17.808Z,100547.83
2022-08-28T07:45:22.136Z,100551.36
2022-08-28T07:46:26.463Z,100552.39
2022-08-28T07:47:30.855Z,100554.66
2022-08-28T07:48:35.229Z,100557.54
2022-08-28T07:49:39.581Z,100560.91
2022-08-28T07:50:43.952Z,100556.72
2022-08-28T07:51:48.329Z,100553.81
2022-08-28T07:52:57.414Z,100558.19
2022-08-28T07:54:01.754Z,100559.5
2022-08-28T07:55:06.111Z,100555.6
2022-08-28T07:56:10.514Z,100559.52
2022-08-28T07:57:14.917Z,100559.7
2022-08-28T07:58:19.254Z,100557.5
2022-08-28T07:59:24.117Z,100559.09
2022-08-28T08:00:29.403Z,100563.61
2022-08-28T08:01:33.827Z,100557.66
2022-08-28T08:02:38.295Z,100555.05
2022-08-28T08:03:42.901Z,100557.22
2022-08-28T08:04:47.412Z,100554.66
2022-08-28T08:05:51.786Z,100550.83
2022-08-28T08:06:59.079Z,100560.62
2022-08-28T08:08:03.440Z,100556.1
2022-08-28T08:09:08.955Z,100563.05
2022-08-28T08:10:13.621Z,100562.78
2022-08-28T08:11:18.234Z,100560.33
2022-08-28T08:12:23.037Z,100566.06
2022-08-28T08:13:31.289Z,100567.22
2022-08-28T08:14:35.611Z,100566.13
2022-08-28T08:15:40.066Z,100566.57
2022-08-28T08:16:44.532Z,100566.69
2022-08-28T08:17:48.951Z,100569.06
2022-08-28T08:18:53.318Z,100569.15
2022-08-28T08:19:57.687Z,100563.23
2022-08-28T08:21:02.019Z,100568.03
2022-08-28T08:22:06.380Z,100568.53
2022-08-28T08:23:10.838Z,100567.16
2022-08-28T08:24:20.889Z,100569.47
2022-08-28T08:25:25.288Z,100570.27
2022-08-28T08:26:29.642Z,100565.05
2022-08-28T08:27:33.981Z,100571.7
2022-08-28T08:28:38.346Z,100579.15
2022-08-28T08:29:42.716Z,100576.28
2022-08-28T08:30:47.203Z,100570.27
2022-08-28T08:31:51.624Z,100572.66
2022-08-28T08:32:58.782Z,100572
2022-08-28T08:34:03.152Z,100581.73
2022-08-28T08:35:07.507Z,100579.83
2022-08-28T08:36:11.870Z,100575.08
2022-08-28T08:37:16.302Z,100574.25
2022-08-28T08:38:20.663Z,100575.31
2022-08-28T08:39:25.002Z,100575.39
2022-08-28T08:40:29.768Z,100571.27
2022-08-28T08:41:34.200Z,100579.23
2022-08-28T08:42:38.542Z,100576.8
2022-08-28T08:43:42.904Z,100582.93
2022-08-28T08:44:47.230Z,100581.09
2022-08-28T08:45:51.650Z,100582.22
2022-08-28T08:46:58.817Z,100583.55
2022-08-28T08:48:03.170Z,100584.52
2022-08-28T08:49:07.526Z,100581.88
2022-08-28T08:50:11.898Z,100581.84
2022-08-28T08:51:16.238Z,100584.28
2022-08-28T08:52:20.587Z,100581
2022-08-28T08:53:24.951Z,100582.05
2022-08-28T08:54:29.288Z,100579.47
2022-08-28T08:55:33.674Z,100579.47
2022-08-28T08:56:38.346Z,100582.44
2022-08-28T08:57:42.683Z,100584.71
2022-08-28T08:58:52.901Z,100585.25
2022-08-28T08:59:57.253Z,100589
2022-08-28T09:01:01.743Z,100586.3
2022-08-28T09:02:06.255Z,100586.8
2022-08-28T09:03:10.637Z,100590.84
2022-08-28T09:04:16.878Z,100593.25
2022-08-28T09:05:25.970Z,100597.01
2022-08-28T09:06:30.344Z,100594.34
2022-08-28T09:07:34.695Z,100598.23
2022-08-28T09:08:39.030Z,100595.75
2022-08-28T09:09:43.406Z,100598.35
2022-08-28T09:10:47.773Z,100596.65
2022-08-28T09:11:58.290Z,100596.56
2022-08-28T09:13:02.655Z,100595.7
2022-08-28T09:14:07.024Z,100600.86
2022-08-28T09:15:11.389Z,100601.08
2022-08-28T09:16:15.962Z,100598.49
2022-08-28T09:17:20.459Z,100600.41
2022-08-28T09:18:24.796Z,100605.88
2022-08-28T09:19:29.152Z,100601.45
2022-08-28T09:20:34.543Z,100605.09
2022-08-28T09:21:38.887Z,100600.41
2022-08-28T09:22:44.203Z,100600.91
2022-08-28T09:23:49.080Z,100596.44
2022-08-28T09:24:54.307Z,100598.76
2022-08-28T09:26:01.687Z,100600.45
2022-08-28T09:27:08.174Z,100601.58
2022-08-28T09:28:17.718Z,100601.52
2022-08-28T09:29:22.100Z,100606.41
2022-08-28T09:30:26.500Z,100608.31
2022-08-28T09:31:30.936Z,100610.42
2022-08-28T09:32:35.432Z,100614.72
2022-08-28T09:33:42.800Z,100608.27
2022-08-28T09:34:47.158Z,100612.98
2022-08-28T09:35:51.531Z,100615.53
2022-08-28T09:36:55.870Z,100609.28
2022-08-28T09:38:00.203Z,100616.64
2022-08-28T09:39:04.581Z,100614.83
2022-08-28T09:40:09.072Z,100616.73
2022-08-28T09:41:13.588Z,100608.32
2022-08-28T09:42:17.988Z,100606.97
2022-08-28T09:43:22.350Z,100611.02
2022-08-28T09:44:26.716Z,100609.2
2022-08-28T09:45:31.489Z,100608.47
2022-08-28T09:46:36.050Z,100608.47
2022-08-28T09:47:47.651Z,100609.52
2022-08-28T09:48:52.231Z,100604.27
2022-08-28T09:49:56.580Z,100605.62
2022-08-28T09:51:00.948Z,100600.38
2022-08-28T09:52:05.356Z,100604.69
2022-08-28T09:53:09.696Z,100602.75
2022-08-28T09:54:14.069Z,100606.63
2022-08-28T09:55:18.409Z,100608.47
2022-08-28T09:56:22.803Z,100613.08
2022-08-28T09:57:27.147Z,100611.38
2022-08-28T09:58:31.504Z,100609.28
2022-08-28T09:59:35.865Z,100611.16
2022-08-28T10:00:40.214Z,100609.98
2022-08-28T10:01:46.155Z,100613.41
2022-08-28T10:02:50.664Z,100613.66
2022-08-28T10:03:55.071Z,100616.3
2022-08-28T10:04:59.542Z,100619.07
2022-08-28T10:06:03.899Z,100617.05
2022-08-28T10:07:08.228Z,100610.52
2022-08-28T10:08:12.720Z,100617.52
2022-08-28T10:09:17.443Z,100612.19
2022-08-28T10:10:22.295Z,100617.2
2022-08-28T10:11:29.544Z,100617.53
2022-08-28T10:12:33.906Z,100613.89
2022-08-28T10:13:38.357Z,100612.78
2022-08-28T10:14:43.199Z,100619.79
2022-08-28T10:15:47.672Z,100616.59
2022-08-28T10:16:52.047Z,100612.58
2022-08-28T10:17:56.385Z,100620.47
2022-08-28T10:19:00.751Z,100617.65
2022-08-28T10:20:05.099Z,100617.13
2022-08-28T10:21:09.457Z,100621.66
2022-08-28T10:22:13.795Z,100619.67
2022-08-28T10:23:18.904Z,100621.66
2022-08-28T10:24:29.228Z,100628.47
2022-08-28T10:25:33.759Z,100620.37
2022-08-28T10:26:39.539Z,100618.02
2022-08-28T10:27:43.897Z,100625.76
2022-08-28T10:28:48.221Z,100630.69
2022-08-28T10:29:52.579Z,100616.41
2022-08-28T10:30:57.023Z,100623.72
2022-08-28T10:32:01.414Z,100622.9
2022-08-28T10:33:05.758Z,100619.23
2022-08-28T10:34:10.085Z,100618.5
2022-08-28T10:35:14.454Z,100618.82
2022-08-28T10:36:35.835Z,100619.77
2022-08-28T10:37:40.259Z,100624.39
2022-08-28T10:38:51.242Z,100619.91
2022-08-28T10:39:57.533Z,100621.48
2022-08-28T10:41:01.975Z,100621.91
2022-08-28T10:42:06.314Z,100622.08
2022-08-28T10:43:10.659Z,100618.55
2022-08-28T10:44:15.011Z,100620.23
2022-08-28T10:45:19.339Z,100627.47
2022-08-28T10:46:28.108Z,100619.29
2022-08-28T10:47:32.590Z,100622.66
2022-08-28T10:48:36.973Z,100622.98
2022-08-28T10:49:41.328Z,100631.66
2022-08-28T10:50:45.668Z,100626.81
2022-08-28T10:51:50.043Z,100631.09
2022-08-28T10:52:55.599Z,100631.83
2022-08-28T10:53:59.967Z,100627.05
2022-08-28T10:55:04.343Z,100634.41
2022-08-28T10:56:08.709Z,100632.12
2022-08-28T10:57:13.060Z,100633.5
2022-08-28T10:58:26.225Z,100631.83
2022-08-28T10:59:30.765Z,100630.16
2022-08-28T11:00:35.682Z,100632.61
2022-08-28T11:01:40.198Z,100639.76
2022-08-28T11:02:44.914Z,100637.52
2022-08-28T11:03:49.375Z,100638.95
2022-08-28T11:04:59.240Z,100644.67
2022-08-28T11:06:03.616Z,100643.53
2022-08-28T11:07:07.961Z,100643.56
2022-08-28T11:08:13.016Z,100637.3
2022-08-28T11:09:17.754Z,100643.19
2022-08-28T11:10:22.098Z,100640.52
2022-08-28T11:11:26.438Z,100641.61
2022-08-28T11:12:30.777Z,100644.02
2022-08-28T11:13:35.209Z,100648.47
2022-08-28T11:14:49.044Z,100643.02
2022-08-28T11:15:55.922Z,100652.73
2022-08-28T11:17:00.453Z,100649.03
2022-08-28T11:18:05.029Z,100653.45
2022-08-28T11:19:09.416Z,100653.58
2022-08-28T11:20:13.766Z,100646.95
2022-08-28T11:21:18.101Z,100650.55
2022-08-28T11:22:22.594Z,100647.48
2022-08-28T11:23:27.943Z,100652.88
2022-08-28T11:24:33.076Z,100653.28
2022-08-28T11:25:38.441Z,100655.89
2022-08-28T11:26:42.832Z,100655.08
2022-08-28T11:27:47.868Z,100657.22
2022-08-28T11:28:52.213Z,100660.61
2022-08-28T11:29:56.822Z,100656.89
2022-08-28T11:31:01.255Z,100653.72
2022-08-28T11:32:05.713Z,100656.66
2022-08-28T11:33:10.167Z,100655.1
2022-08-28T11:34:14.534Z,100657.33
2022-08-28T11:35:18.898Z,100662.17
2022-08-28T11:36:23.344Z,100658.77
2022-08-28T11:37:27.768Z,100658.89
2022-08-28T11:38:32.139Z,100659.32
2022-08-28T11:39:36.911Z,100661.38
2022-08-28T11:40:41.818Z,100653.6
2022-08-28T11:41:46.281Z,100657.8
2022-08-28T11:42:50.639Z,100653.25
2022-08-28T11:43:54.982Z,100657.01
2022-08-28T11:44:59.376Z,100661.38
2022-08-28T11:46:03.850Z,100664.4
2022-08-28T11:47:08.234Z,100665.55
2022-08-28T11:48:12.643Z,100660.76
2022-08-28T11:49:17.038Z,100664.09
2022-08-28T11:50:21.378Z,100660.68
2022-08-28T11:51:25.712Z,100658.63
2022-08-28T11:52:30.069Z,100658.38
2022-08-28T11:53:34.479Z,100659.84
2022-08-28T11:54:38.812Z,100662.16
2022-08-28T11:55:43.153Z,100660.5
2022-08-28T11:56:47.508Z,100664.55
2022-08-28T11:57:51.872Z,100661.14
2022-08-28T11:58:56.291Z,100662.66
2022-08-28T12:00:01.272Z,100661.7
2022-08-28T12:01:06.482Z,100657.8
2022-08-28T12:02:10.901Z,100663.52
2022-08-28T12:03:15.787Z,100661.28
2022-08-28T12:04:20.347Z,100663.25
2022-08-28T12:05:24.798Z,100663.75
2022-08-28T12:06:29.177Z,100665.84
2022-08-28T12:07:33.530Z,100664.4
2022-08-28T12:08:37.929Z,100660.67
2022-08-28T12:09:42.274Z,100666.02
2022-08-28T12:10:46.636Z,100664.28
2022-08-28T12:11:50.992Z,100665.37
2022-08-28T12:12:55.328Z,100662.41
2022-08-28T12:13:59.714Z,100665.16
2022-08-28T12:15:04.101Z,100663.52
2022-08-28T12:16:08.747Z,100665.56
2022-08-28T12:17:13.241Z,100666.04
2022-08-28T12:18:17.612Z,100670.23
2022-08-28T12:19:23.046Z,100669.73
2022-08-28T12:20:27.386Z,100670.73
2022-08-28T12:21:31.744Z,100668.8
2022-08-28T12:22:36.208Z,100665.35
2022-08-28T12:23:40.595Z,100666.98